Terminal Aerodrome Forecast
Issued by NWS

Home | Current Version | Previous Version | Text Only | Print | Product List | Glossary On
Versions: 1 2 3 4 5 6 7 8 9 10 11 12 13 14 15 16
139
FTUS44 KMAF 211724
TAFFST
TAF
KFST 211724Z 2118/2218 16011KT P6SM SCT100
     FM212300 14014G24KT P6SM SCT100=

USA.gov is the U.S. government's official web portal to all federal, state and local government web resources and services.